<?xml version="1.0" encoding="UTF-8" standalone="no" ?>
<gpx xmlns="http://www.topografix.com/GPX/1/1" xmlns:xsi="http://www.w3.org/2001/XMLSchema-instance" xsi:schemaLocation="http://www.topografix.com/GPX/1/1 http://www.topografix.com/GPX/1/1/gpx.xsd" version="1.1" creator="VisuGPX - https://www.visugpx.com">
  <metadata>
    <name>Pont Himalayen de Saint-Guérin</name>
    <desc><![CDATA[Vous apprécierez dès le départ le magnifique point de vue du barrage de Saint Guerin, puis cette longue promenade longeant le lac qui vous amènera à franchir une impressionnante passerelle de 80 m de long surplombant le lac à plus de 20 m au-dessus de l'eau : sensations assurées.]]></desc>
  </metadata>
  <trk>
    <name><![CDATA[2017-07-09 15:32]]></name>
    <desc><![CDATA[<p>Heure de départ: 07/09/2017 15:32</p><p>Heure d'arrivée: 07/09/2017 17:19</p><p>Distance: 4,3 km (01:47)</p><p>Temps déplacement: 01:15</p><p>Vitesse moyenne: 2,4 km/h</p><p>Vitesse moyenne mouv.: 3,41 km/h</p><p>Vitesse Max.: 8,11km/h</p><p>Altitude minimale: 1543 m</p><p>Altitude maximale: 1678 m</p><p>Vitesse de montée: 234,3 m/h</p><p>Vitesse de descente: -250,7 m/h</p><p>Gain d'altitude: 237 m</p><p>Perte d'altitude: -157 m</p><p>Temps de montée: 01:00</p><p>Temps de descente: 00:37</p><hr align="center" width="480" style="height: 2px; width: 517px"/>]]></desc>
    <trkseg>
      <trkpt lat="45.64991" lon="6.58382">
        <ele>1578.53</ele>
        <time>2017-07-09T13:32:13Z</time>
      </trkpt>
      <trkpt lat="45.64975" lon="6.58393">
        <ele>1571.3</ele>
        <time>2017-07-09T13:34:19Z</time>
      </trkpt>
      <trkpt lat="45.64957" lon="6.58398">
        <ele>1567.33</ele>
        <time>2017-07-09T13:34:55Z</time>
      </trkpt>
      <trkpt lat="45.64939" lon="6.58392">
        <ele>1567.5</ele>
        <time>2017-07-09T13:35:14Z</time>
      </trkpt>
      <trkpt lat="45.6492" lon="6.58393">
        <ele>1565.53</ele>
        <time>2017-07-09T13:36:05Z</time>
      </trkpt>
      <trkpt lat="45.64902" lon="6.58389">
        <ele>1565.49</ele>
        <time>2017-07-09T13:36:24Z</time>
      </trkpt>
      <trkpt lat="45.64883" lon="6.58383">
        <ele>1562.5</ele>
        <time>2017-07-09T13:36:43Z</time>
      </trkpt>
      <trkpt lat="45.64865" lon="6.58382">
        <ele>1557.72</ele>
        <time>2017-07-09T13:36:59Z</time>
      </trkpt>
      <trkpt lat="45.64848" lon="6.58386">
        <ele>1558.28</ele>
        <time>2017-07-09T13:37:15Z</time>
      </trkpt>
      <trkpt lat="45.6483" lon="6.58398">
        <ele>1551.56</ele>
        <time>2017-07-09T13:37:34Z</time>
      </trkpt>
      <trkpt lat="45.64816" lon="6.58416">
        <ele>1552.29</ele>
        <time>2017-07-09T13:37:49Z</time>
      </trkpt>
      <trkpt lat="45.64798" lon="6.58428">
        <ele>1549.05</ele>
        <time>2017-07-09T13:38:13Z</time>
      </trkpt>
      <trkpt lat="45.64781" lon="6.58445">
        <ele>1555.93</ele>
        <time>2017-07-09T13:41:39Z</time>
      </trkpt>
      <trkpt lat="45.64766" lon="6.58463">
        <ele>1561.75</ele>
        <time>2017-07-09T13:41:46Z</time>
      </trkpt>
      <trkpt lat="45.64754" lon="6.58488">
        <ele>1561.73</ele>
        <time>2017-07-09T13:42:56Z</time>
      </trkpt>
      <trkpt lat="45.64735" lon="6.58491">
        <ele>1543.57</ele>
        <time>2017-07-09T13:43:11Z</time>
      </trkpt>
      <trkpt lat="45.64721" lon="6.58475">
        <ele>1555.09</ele>
        <time>2017-07-09T13:43:56Z</time>
      </trkpt>
      <trkpt lat="45.64703" lon="6.58458">
        <ele>1557.48</ele>
        <time>2017-07-09T13:44:07Z</time>
      </trkpt>
      <trkpt lat="45.64693" lon="6.58437">
        <ele>1561.33</ele>
        <time>2017-07-09T13:44:16Z</time>
      </trkpt>
      <trkpt lat="45.64678" lon="6.58422">
        <ele>1558.93</ele>
        <time>2017-07-09T13:44:30Z</time>
      </trkpt>
      <trkpt lat="45.64666" lon="6.58402">
        <ele>1562.34</ele>
        <time>2017-07-09T13:44:49Z</time>
      </trkpt>
      <trkpt lat="45.64656" lon="6.58378">
        <ele>1567.41</ele>
        <time>2017-07-09T13:45:02Z</time>
      </trkpt>
      <trkpt lat="45.64658" lon="6.58352">
        <ele>1558.77</ele>
        <time>2017-07-09T13:45:41Z</time>
      </trkpt>
      <trkpt lat="45.64647" lon="6.5833">
        <ele>1559.73</ele>
        <time>2017-07-09T13:47:37Z</time>
      </trkpt>
      <trkpt lat="45.64631" lon="6.58313">
        <ele>1554.16</ele>
        <time>2017-07-09T13:47:50Z</time>
      </trkpt>
      <trkpt lat="45.64615" lon="6.58327">
        <ele>1562.73</ele>
        <time>2017-07-09T13:51:15Z</time>
      </trkpt>
      <trkpt lat="45.64597" lon="6.58318">
        <ele>1562.33</ele>
        <time>2017-07-09T13:51:36Z</time>
      </trkpt>
      <trkpt lat="45.64579" lon="6.58313">
        <ele>1564.51</ele>
        <time>2017-07-09T13:51:54Z</time>
      </trkpt>
      <trkpt lat="45.64562" lon="6.58303">
        <ele>1561.97</ele>
        <time>2017-07-09T13:52:11Z</time>
      </trkpt>
      <trkpt lat="45.64543" lon="6.58294">
        <ele>1569.49</ele>
        <time>2017-07-09T13:52:51Z</time>
      </trkpt>
      <trkpt lat="45.64523" lon="6.58291">
        <ele>1571.72</ele>
        <time>2017-07-09T13:53:02Z</time>
      </trkpt>
      <trkpt lat="45.64501" lon="6.5829">
        <ele>1569.33</ele>
        <time>2017-07-09T13:53:08Z</time>
      </trkpt>
      <trkpt lat="45.64486" lon="6.58308">
        <ele>1570.36</ele>
        <time>2017-07-09T13:53:29Z</time>
      </trkpt>
      <trkpt lat="45.64469" lon="6.58294">
        <ele>1567.5</ele>
        <time>2017-07-09T13:53:51Z</time>
      </trkpt>
      <trkpt lat="45.64451" lon="6.5827">
        <ele>1562.18</ele>
        <time>2017-07-09T13:53:57Z</time>
      </trkpt>
      <trkpt lat="45.64431" lon="6.58273">
        <ele>1556.81</ele>
        <time>2017-07-09T13:54:17Z</time>
      </trkpt>
      <trkpt lat="45.64414" lon="6.58264">
        <ele>1558.57</ele>
        <time>2017-07-09T13:54:31Z</time>
      </trkpt>
      <trkpt lat="45.6442" lon="6.58288">
        <ele>1556.93</ele>
        <time>2017-07-09T13:54:40Z</time>
      </trkpt>
      <trkpt lat="45.64407" lon="6.58306">
        <ele>1553.29</ele>
        <time>2017-07-09T13:55:00Z</time>
      </trkpt>
      <trkpt lat="45.64389" lon="6.58302">
        <ele>1562.52</ele>
        <time>2017-07-09T13:55:19Z</time>
      </trkpt>
      <trkpt lat="45.64383" lon="6.58327">
        <ele>1568.44</ele>
        <time>2017-07-09T13:56:21Z</time>
      </trkpt>
      <trkpt lat="45.64368" lon="6.58343">
        <ele>1563.56</ele>
        <time>2017-07-09T13:56:37Z</time>
      </trkpt>
      <trkpt lat="45.64352" lon="6.58329">
        <ele>1573.27</ele>
        <time>2017-07-09T13:56:44Z</time>
      </trkpt>
      <trkpt lat="45.64338" lon="6.58312">
        <ele>1572</ele>
        <time>2017-07-09T13:57:00Z</time>
      </trkpt>
      <trkpt lat="45.6432" lon="6.58319">
        <ele>1573.85</ele>
        <time>2017-07-09T13:57:45Z</time>
      </trkpt>
      <trkpt lat="45.64302" lon="6.58313">
        <ele>1580.43</ele>
        <time>2017-07-09T13:57:55Z</time>
      </trkpt>
      <trkpt lat="45.64289" lon="6.58291">
        <ele>1579.53</ele>
        <time>2017-07-09T13:58:01Z</time>
      </trkpt>
      <trkpt lat="45.64299" lon="6.5832">
        <ele>1579.69</ele>
        <time>2017-07-09T13:58:04Z</time>
      </trkpt>
      <trkpt lat="45.64283" lon="6.58332">
        <ele>1579.56</ele>
        <time>2017-07-09T13:58:28Z</time>
      </trkpt>
      <trkpt lat="45.64265" lon="6.58324">
        <ele>1582.92</ele>
        <time>2017-07-09T13:58:44Z</time>
      </trkpt>
      <trkpt lat="45.64255" lon="6.58302">
        <ele>1576.73</ele>
        <time>2017-07-09T14:00:14Z</time>
      </trkpt>
      <trkpt lat="45.64239" lon="6.58288">
        <ele>1571.93</ele>
        <time>2017-07-09T14:00:39Z</time>
      </trkpt>
      <trkpt lat="45.64225" lon="6.58269">
        <ele>1577.73</ele>
        <time>2017-07-09T14:01:04Z</time>
      </trkpt>
      <trkpt lat="45.64208" lon="6.58258">
        <ele>1567.36</ele>
        <time>2017-07-09T14:03:12Z</time>
      </trkpt>
      <trkpt lat="45.64195" lon="6.58241">
        <ele>1571.49</ele>
        <time>2017-07-09T14:04:26Z</time>
      </trkpt>
      <trkpt lat="45.64211" lon="6.58256">
        <ele>1562.53</ele>
        <time>2017-07-09T14:05:33Z</time>
      </trkpt>
      <trkpt lat="45.64206" lon="6.5825">
        <ele>1563.53</ele>
        <time>2017-07-09T14:05:49Z</time>
      </trkpt>
      <trkpt lat="45.6422" lon="6.58266">
        <ele>1562.08</ele>
        <time>2017-07-09T14:07:10Z</time>
      </trkpt>
      <trkpt lat="45.64233" lon="6.58285">
        <ele>1559.49</ele>
        <time>2017-07-09T14:07:28Z</time>
      </trkpt>
      <trkpt lat="45.64249" lon="6.58297">
        <ele>1569.57</ele>
        <time>2017-07-09T14:09:21Z</time>
      </trkpt>
      <trkpt lat="45.64267" lon="6.58306">
        <ele>1573.52</ele>
        <time>2017-07-09T14:09:41Z</time>
      </trkpt>
      <trkpt lat="45.64284" lon="6.58326">
        <ele>1579.53</ele>
        <time>2017-07-09T14:10:39Z</time>
      </trkpt>
      <trkpt lat="45.64266" lon="6.5832">
        <ele>1583.33</ele>
        <time>2017-07-09T14:10:57Z</time>
      </trkpt>
      <trkpt lat="45.64246" lon="6.58317">
        <ele>1575.21</ele>
        <time>2017-07-09T14:11:31Z</time>
      </trkpt>
      <trkpt lat="45.64249" lon="6.58344">
        <ele>1568.06</ele>
        <time>2017-07-09T14:11:35Z</time>
      </trkpt>
      <trkpt lat="45.64231" lon="6.58353">
        <ele>1580.73</ele>
        <time>2017-07-09T14:12:00Z</time>
      </trkpt>
      <trkpt lat="45.64212" lon="6.58338">
        <ele>1578.73</ele>
        <time>2017-07-09T14:12:20Z</time>
      </trkpt>
      <trkpt lat="45.64218" lon="6.58363">
        <ele>1581.31</ele>
        <time>2017-07-09T14:12:34Z</time>
      </trkpt>
      <trkpt lat="45.64199" lon="6.5836">
        <ele>1588.58</ele>
        <time>2017-07-09T14:12:53Z</time>
      </trkpt>
      <trkpt lat="45.64187" lon="6.58381">
        <ele>1590.41</ele>
        <time>2017-07-09T14:13:11Z</time>
      </trkpt>
      <trkpt lat="45.64173" lon="6.58364">
        <ele>1586.33</ele>
        <time>2017-07-09T14:15:49Z</time>
      </trkpt>
      <trkpt lat="45.64189" lon="6.58376">
        <ele>1589.33</ele>
        <time>2017-07-09T14:16:58Z</time>
      </trkpt>
      <trkpt lat="45.64191" lon="6.58404">
        <ele>1584.62</ele>
        <time>2017-07-09T14:17:20Z</time>
      </trkpt>
      <trkpt lat="45.64176" lon="6.58419">
        <ele>1581.55</ele>
        <time>2017-07-09T14:17:41Z</time>
      </trkpt>
      <trkpt lat="45.64167" lon="6.58444">
        <ele>1582.57</ele>
        <time>2017-07-09T14:17:55Z</time>
      </trkpt>
      <trkpt lat="45.64149" lon="6.58441">
        <ele>1576.38</ele>
        <time>2017-07-09T14:18:11Z</time>
      </trkpt>
      <trkpt lat="45.64131" lon="6.58448">
        <ele>1573.34</ele>
        <time>2017-07-09T14:18:26Z</time>
      </trkpt>
      <trkpt lat="45.64114" lon="6.58458">
        <ele>1575.49</ele>
        <time>2017-07-09T14:18:54Z</time>
      </trkpt>
      <trkpt lat="45.64101" lon="6.58476">
        <ele>1578.53</ele>
        <time>2017-07-09T14:19:18Z</time>
      </trkpt>
      <trkpt lat="45.64086" lon="6.58495">
        <ele>1582.32</ele>
        <time>2017-07-09T14:19:39Z</time>
      </trkpt>
      <trkpt lat="45.6407" lon="6.58511">
        <ele>1576.93</ele>
        <time>2017-07-09T14:19:57Z</time>
      </trkpt>
      <trkpt lat="45.64058" lon="6.58533">
        <ele>1585.46</ele>
        <time>2017-07-09T14:21:19Z</time>
      </trkpt>
      <trkpt lat="45.64044" lon="6.5855">
        <ele>1594.53</ele>
        <time>2017-07-09T14:21:37Z</time>
      </trkpt>
      <trkpt lat="45.64032" lon="6.5857">
        <ele>1590.62</ele>
        <time>2017-07-09T14:22:00Z</time>
      </trkpt>
      <trkpt lat="45.64015" lon="6.58563">
        <ele>1588.53</ele>
        <time>2017-07-09T14:22:26Z</time>
      </trkpt>
      <trkpt lat="45.63997" lon="6.5857">
        <ele>1592.49</ele>
        <time>2017-07-09T14:22:51Z</time>
      </trkpt>
      <trkpt lat="45.63982" lon="6.58584">
        <ele>1595.54</ele>
        <time>2017-07-09T14:24:07Z</time>
      </trkpt>
      <trkpt lat="45.63967" lon="6.58599">
        <ele>1595.57</ele>
        <time>2017-07-09T14:24:23Z</time>
      </trkpt>
      <trkpt lat="45.63949" lon="6.58606">
        <ele>1601.65</ele>
        <time>2017-07-09T14:24:49Z</time>
      </trkpt>
      <trkpt lat="45.63932" lon="6.58618">
        <ele>1605.5</ele>
        <time>2017-07-09T14:25:17Z</time>
      </trkpt>
      <trkpt lat="45.63916" lon="6.5863">
        <ele>1606.41</ele>
        <time>2017-07-09T14:25:44Z</time>
      </trkpt>
      <trkpt lat="45.63899" lon="6.58642">
        <ele>1606.3</ele>
        <time>2017-07-09T14:26:50Z</time>
      </trkpt>
      <trkpt lat="45.63882" lon="6.58649">
        <ele>1613.34</ele>
        <time>2017-07-09T14:27:15Z</time>
      </trkpt>
      <trkpt lat="45.63864" lon="6.58654">
        <ele>1619.54</ele>
        <time>2017-07-09T14:27:38Z</time>
      </trkpt>
      <trkpt lat="45.63846" lon="6.58658">
        <ele>1621.49</ele>
        <time>2017-07-09T14:27:59Z</time>
      </trkpt>
      <trkpt lat="45.63828" lon="6.58665">
        <ele>1620.72</ele>
        <time>2017-07-09T14:28:19Z</time>
      </trkpt>
      <trkpt lat="45.63814" lon="6.58683">
        <ele>1618.57</ele>
        <time>2017-07-09T14:28:36Z</time>
      </trkpt>
      <trkpt lat="45.63801" lon="6.58702">
        <ele>1626.53</ele>
        <time>2017-07-09T14:29:05Z</time>
      </trkpt>
      <trkpt lat="45.63788" lon="6.58721">
        <ele>1625.57</ele>
        <time>2017-07-09T14:31:12Z</time>
      </trkpt>
      <trkpt lat="45.63776" lon="6.58742">
        <ele>1635.53</ele>
        <time>2017-07-09T14:31:52Z</time>
      </trkpt>
      <trkpt lat="45.63771" lon="6.58767">
        <ele>1638.33</ele>
        <time>2017-07-09T14:32:29Z</time>
      </trkpt>
      <trkpt lat="45.63789" lon="6.58762">
        <ele>1644.53</ele>
        <time>2017-07-09T14:34:36Z</time>
      </trkpt>
      <trkpt lat="45.63808" lon="6.58764">
        <ele>1648.56</ele>
        <time>2017-07-09T14:35:03Z</time>
      </trkpt>
      <trkpt lat="45.63827" lon="6.58763">
        <ele>1644.73</ele>
        <time>2017-07-09T14:35:23Z</time>
      </trkpt>
      <trkpt lat="45.63844" lon="6.58754">
        <ele>1642.53</ele>
        <time>2017-07-09T14:35:44Z</time>
      </trkpt>
      <trkpt lat="45.63862" lon="6.58747">
        <ele>1641.53</ele>
        <time>2017-07-09T14:36:03Z</time>
      </trkpt>
      <trkpt lat="45.63878" lon="6.58735">
        <ele>1640.53</ele>
        <time>2017-07-09T14:36:41Z</time>
      </trkpt>
      <trkpt lat="45.63897" lon="6.58737">
        <ele>1640.17</ele>
        <time>2017-07-09T14:37:11Z</time>
      </trkpt>
      <trkpt lat="45.63915" lon="6.58731">
        <ele>1641.33</ele>
        <time>2017-07-09T14:37:33Z</time>
      </trkpt>
      <trkpt lat="45.63935" lon="6.58733">
        <ele>1642.53</ele>
        <time>2017-07-09T14:37:48Z</time>
      </trkpt>
      <trkpt lat="45.63954" lon="6.58728">
        <ele>1641.57</ele>
        <time>2017-07-09T14:38:11Z</time>
      </trkpt>
      <trkpt lat="45.63972" lon="6.5872">
        <ele>1641.53</ele>
        <time>2017-07-09T14:38:32Z</time>
      </trkpt>
      <trkpt lat="45.63991" lon="6.58716">
        <ele>1639.53</ele>
        <time>2017-07-09T14:39:08Z</time>
      </trkpt>
      <trkpt lat="45.64008" lon="6.58706">
        <ele>1639.73</ele>
        <time>2017-07-09T14:39:35Z</time>
      </trkpt>
      <trkpt lat="45.64028" lon="6.58704">
        <ele>1642.69</ele>
        <time>2017-07-09T14:39:55Z</time>
      </trkpt>
      <trkpt lat="45.64046" lon="6.58704">
        <ele>1641.52</ele>
        <time>2017-07-09T14:40:18Z</time>
      </trkpt>
      <trkpt lat="45.64063" lon="6.58692">
        <ele>1645.53</ele>
        <time>2017-07-09T14:40:38Z</time>
      </trkpt>
      <trkpt lat="45.64083" lon="6.58691">
        <ele>1646.73</ele>
        <time>2017-07-09T14:41:01Z</time>
      </trkpt>
      <trkpt lat="45.64101" lon="6.58692">
        <ele>1645.58</ele>
        <time>2017-07-09T14:41:21Z</time>
      </trkpt>
      <trkpt lat="45.64118" lon="6.58682">
        <ele>1642.57</ele>
        <time>2017-07-09T14:42:02Z</time>
      </trkpt>
      <trkpt lat="45.64135" lon="6.58671">
        <ele>1645.34</ele>
        <time>2017-07-09T14:42:20Z</time>
      </trkpt>
      <trkpt lat="45.64149" lon="6.58653">
        <ele>1648.52</ele>
        <time>2017-07-09T14:42:54Z</time>
      </trkpt>
      <trkpt lat="45.64168" lon="6.58649">
        <ele>1643.53</ele>
        <time>2017-07-09T14:43:14Z</time>
      </trkpt>
      <trkpt lat="45.64184" lon="6.58638">
        <ele>1648.28</ele>
        <time>2017-07-09T14:43:42Z</time>
      </trkpt>
      <trkpt lat="45.642" lon="6.58625">
        <ele>1649.73</ele>
        <time>2017-07-09T14:44:02Z</time>
      </trkpt>
      <trkpt lat="45.64216" lon="6.58615">
        <ele>1649.52</ele>
        <time>2017-07-09T14:44:21Z</time>
      </trkpt>
      <trkpt lat="45.64233" lon="6.58604">
        <ele>1649.69</ele>
        <time>2017-07-09T14:44:41Z</time>
      </trkpt>
      <trkpt lat="45.64251" lon="6.58599">
        <ele>1653.52</ele>
        <time>2017-07-09T14:44:59Z</time>
      </trkpt>
      <trkpt lat="45.64269" lon="6.58592">
        <ele>1656.29</ele>
        <time>2017-07-09T14:45:39Z</time>
      </trkpt>
      <trkpt lat="45.64286" lon="6.5858">
        <ele>1658.37</ele>
        <time>2017-07-09T14:46:05Z</time>
      </trkpt>
      <trkpt lat="45.64298" lon="6.58561">
        <ele>1658.53</ele>
        <time>2017-07-09T14:46:30Z</time>
      </trkpt>
      <trkpt lat="45.64308" lon="6.58539">
        <ele>1655.53</ele>
        <time>2017-07-09T14:47:24Z</time>
      </trkpt>
      <trkpt lat="45.64323" lon="6.58522">
        <ele>1657.53</ele>
        <time>2017-07-09T14:47:43Z</time>
      </trkpt>
      <trkpt lat="45.64341" lon="6.58515">
        <ele>1659.29</ele>
        <time>2017-07-09T14:48:04Z</time>
      </trkpt>
      <trkpt lat="45.64359" lon="6.5851">
        <ele>1661.34</ele>
        <time>2017-07-09T14:48:27Z</time>
      </trkpt>
      <trkpt lat="45.64378" lon="6.58505">
        <ele>1665.52</ele>
        <time>2017-07-09T14:48:47Z</time>
      </trkpt>
      <trkpt lat="45.64395" lon="6.58496">
        <ele>1669.33</ele>
        <time>2017-07-09T14:49:52Z</time>
      </trkpt>
      <trkpt lat="45.64411" lon="6.58481">
        <ele>1663.93</ele>
        <time>2017-07-09T14:50:17Z</time>
      </trkpt>
      <trkpt lat="45.64425" lon="6.58466">
        <ele>1666.69</ele>
        <time>2017-07-09T14:50:39Z</time>
      </trkpt>
      <trkpt lat="45.64443" lon="6.58459">
        <ele>1669.53</ele>
        <time>2017-07-09T14:51:35Z</time>
      </trkpt>
      <trkpt lat="45.64462" lon="6.58459">
        <ele>1671.53</ele>
        <time>2017-07-09T14:51:50Z</time>
      </trkpt>
      <trkpt lat="45.64481" lon="6.5846">
        <ele>1670.52</ele>
        <time>2017-07-09T14:52:10Z</time>
      </trkpt>
      <trkpt lat="45.645" lon="6.5846">
        <ele>1673.57</ele>
        <time>2017-07-09T14:52:42Z</time>
      </trkpt>
      <trkpt lat="45.64518" lon="6.58463">
        <ele>1673.53</ele>
        <time>2017-07-09T14:53:05Z</time>
      </trkpt>
      <trkpt lat="45.64533" lon="6.58478">
        <ele>1669.35</ele>
        <time>2017-07-09T14:53:39Z</time>
      </trkpt>
      <trkpt lat="45.64555" lon="6.58479">
        <ele>1674.28</ele>
        <time>2017-07-09T14:54:05Z</time>
      </trkpt>
      <trkpt lat="45.64573" lon="6.58485">
        <ele>1678.73</ele>
        <time>2017-07-09T14:54:35Z</time>
      </trkpt>
      <trkpt lat="45.64587" lon="6.58504">
        <ele>1672</ele>
        <time>2017-07-09T14:54:42Z</time>
      </trkpt>
      <trkpt lat="45.64604" lon="6.58522">
        <ele>1667.12</ele>
        <time>2017-07-09T14:54:56Z</time>
      </trkpt>
      <trkpt lat="45.64619" lon="6.58539">
        <ele>1659.54</ele>
        <time>2017-07-09T14:55:12Z</time>
      </trkpt>
      <trkpt lat="45.64636" lon="6.58555">
        <ele>1660.33</ele>
        <time>2017-07-09T14:55:22Z</time>
      </trkpt>
      <trkpt lat="45.64651" lon="6.5857">
        <ele>1657.49</ele>
        <time>2017-07-09T14:55:37Z</time>
      </trkpt>
      <trkpt lat="45.64666" lon="6.58587">
        <ele>1660.48</ele>
        <time>2017-07-09T14:55:49Z</time>
      </trkpt>
      <trkpt lat="45.64677" lon="6.58608">
        <ele>1659.73</ele>
        <time>2017-07-09T14:56:08Z</time>
      </trkpt>
      <trkpt lat="45.64664" lon="6.58608">
        <ele>1589.53</ele>
        <time>2017-07-09T14:57:16Z</time>
      </trkpt>
      <trkpt lat="45.64643" lon="6.58605">
        <ele>1599.29</ele>
        <time>2017-07-09T14:57:18Z</time>
      </trkpt>
      <trkpt lat="45.64661" lon="6.58609">
        <ele>1665.66</ele>
        <time>2017-07-09T14:58:51Z</time>
      </trkpt>
      <trkpt lat="45.64679" lon="6.58598">
        <ele>1675.62</ele>
        <time>2017-07-09T14:59:59Z</time>
      </trkpt>
      <trkpt lat="45.64696" lon="6.58605">
        <ele>1667.56</ele>
        <time>2017-07-09T15:00:39Z</time>
      </trkpt>
      <trkpt lat="45.64714" lon="6.58612">
        <ele>1663.53</ele>
        <time>2017-07-09T15:00:57Z</time>
      </trkpt>
      <trkpt lat="45.64735" lon="6.58618">
        <ele>1663.57</ele>
        <time>2017-07-09T15:01:35Z</time>
      </trkpt>
      <trkpt lat="45.64753" lon="6.58638">
        <ele>1657.33</ele>
        <time>2017-07-09T15:01:59Z</time>
      </trkpt>
      <trkpt lat="45.64772" lon="6.5865">
        <ele>1659.72</ele>
        <time>2017-07-09T15:02:35Z</time>
      </trkpt>
      <trkpt lat="45.6479" lon="6.5866">
        <ele>1657.52</ele>
        <time>2017-07-09T15:03:03Z</time>
      </trkpt>
      <trkpt lat="45.64808" lon="6.58671">
        <ele>1657.53</ele>
        <time>2017-07-09T15:03:39Z</time>
      </trkpt>
      <trkpt lat="45.6483" lon="6.58686">
        <ele>1653.13</ele>
        <time>2017-07-09T15:03:56Z</time>
      </trkpt>
      <trkpt lat="45.64844" lon="6.58703">
        <ele>1648.73</ele>
        <time>2017-07-09T15:04:18Z</time>
      </trkpt>
      <trkpt lat="45.64862" lon="6.5871">
        <ele>1647.73</ele>
        <time>2017-07-09T15:04:33Z</time>
      </trkpt>
      <trkpt lat="45.64879" lon="6.5872">
        <ele>1641.58</ele>
        <time>2017-07-09T15:04:52Z</time>
      </trkpt>
      <trkpt lat="45.64897" lon="6.58722">
        <ele>1640.52</ele>
        <time>2017-07-09T15:05:13Z</time>
      </trkpt>
      <trkpt lat="45.64916" lon="6.58718">
        <ele>1645.33</ele>
        <time>2017-07-09T15:05:27Z</time>
      </trkpt>
      <trkpt lat="45.64934" lon="6.58716">
        <ele>1640.54</ele>
        <time>2017-07-09T15:05:42Z</time>
      </trkpt>
      <trkpt lat="45.6495" lon="6.58704">
        <ele>1637.5</ele>
        <time>2017-07-09T15:06:00Z</time>
      </trkpt>
      <trkpt lat="45.64962" lon="6.58684">
        <ele>1639.28</ele>
        <time>2017-07-09T15:06:17Z</time>
      </trkpt>
      <trkpt lat="45.64975" lon="6.58665">
        <ele>1635.69</ele>
        <time>2017-07-09T15:06:35Z</time>
      </trkpt>
      <trkpt lat="45.64987" lon="6.58645">
        <ele>1633.5</ele>
        <time>2017-07-09T15:06:53Z</time>
      </trkpt>
      <trkpt lat="45.64993" lon="6.58621">
        <ele>1629.54</ele>
        <time>2017-07-09T15:07:11Z</time>
      </trkpt>
      <trkpt lat="45.64997" lon="6.58595">
        <ele>1625.73</ele>
        <time>2017-07-09T15:07:38Z</time>
      </trkpt>
      <trkpt lat="45.65013" lon="6.58582">
        <ele>1622.38</ele>
        <time>2017-07-09T15:07:52Z</time>
      </trkpt>
      <trkpt lat="45.6503" lon="6.5859">
        <ele>1615.7</ele>
        <time>2017-07-09T15:08:19Z</time>
      </trkpt>
      <trkpt lat="45.65049" lon="6.586">
        <ele>1610.53</ele>
        <time>2017-07-09T15:08:34Z</time>
      </trkpt>
      <trkpt lat="45.65066" lon="6.58614">
        <ele>1611.53</ele>
        <time>2017-07-09T15:08:52Z</time>
      </trkpt>
      <trkpt lat="45.65086" lon="6.58615">
        <ele>1611.32</ele>
        <time>2017-07-09T15:09:07Z</time>
      </trkpt>
      <trkpt lat="45.65096" lon="6.58593">
        <ele>1612.5</ele>
        <time>2017-07-09T15:09:26Z</time>
      </trkpt>
      <trkpt lat="45.65093" lon="6.58568">
        <ele>1613.33</ele>
        <time>2017-07-09T15:09:42Z</time>
      </trkpt>
      <trkpt lat="45.65096" lon="6.58541">
        <ele>1615.49</ele>
        <time>2017-07-09T15:09:58Z</time>
      </trkpt>
      <trkpt lat="45.65104" lon="6.58517">
        <ele>1614.5</ele>
        <time>2017-07-09T15:10:13Z</time>
      </trkpt>
      <trkpt lat="45.65115" lon="6.58497">
        <ele>1614.53</ele>
        <time>2017-07-09T15:10:28Z</time>
      </trkpt>
      <trkpt lat="45.6513" lon="6.58483">
        <ele>1613.37</ele>
        <time>2017-07-09T15:10:43Z</time>
      </trkpt>
      <trkpt lat="45.65142" lon="6.58461">
        <ele>1610.57</ele>
        <time>2017-07-09T15:10:58Z</time>
      </trkpt>
      <trkpt lat="45.65155" lon="6.58442">
        <ele>1607.75</ele>
        <time>2017-07-09T15:11:15Z</time>
      </trkpt>
      <trkpt lat="45.65163" lon="6.58419">
        <ele>1601.37</ele>
        <time>2017-07-09T15:12:12Z</time>
      </trkpt>
      <trkpt lat="45.65173" lon="6.58395">
        <ele>1600.5</ele>
        <time>2017-07-09T15:13:15Z</time>
      </trkpt>
      <trkpt lat="45.65171" lon="6.58366">
        <ele>1600.53</ele>
        <time>2017-07-09T15:13:31Z</time>
      </trkpt>
      <trkpt lat="45.65171" lon="6.58339">
        <ele>1599.53</ele>
        <time>2017-07-09T15:13:49Z</time>
      </trkpt>
      <trkpt lat="45.65172" lon="6.58313">
        <ele>1595.37</ele>
        <time>2017-07-09T15:14:20Z</time>
      </trkpt>
      <trkpt lat="45.65163" lon="6.58289">
        <ele>1595.53</ele>
        <time>2017-07-09T15:14:34Z</time>
      </trkpt>
      <trkpt lat="45.6516" lon="6.58262">
        <ele>1593.61</ele>
        <time>2017-07-09T15:14:50Z</time>
      </trkpt>
      <trkpt lat="45.65157" lon="6.58236">
        <ele>1587.58</ele>
        <time>2017-07-09T15:15:07Z</time>
      </trkpt>
      <trkpt lat="45.65144" lon="6.58215">
        <ele>1587.38</ele>
        <time>2017-07-09T15:15:25Z</time>
      </trkpt>
      <trkpt lat="45.65137" lon="6.5819">
        <ele>1585.5</ele>
        <time>2017-07-09T15:15:40Z</time>
      </trkpt>
      <trkpt lat="45.65133" lon="6.58165">
        <ele>1586.49</ele>
        <time>2017-07-09T15:15:58Z</time>
      </trkpt>
      <trkpt lat="45.65135" lon="6.58138">
        <ele>1586.69</ele>
        <time>2017-07-09T15:16:16Z</time>
      </trkpt>
      <trkpt lat="45.65125" lon="6.58117">
        <ele>1581.7</ele>
        <time>2017-07-09T15:16:32Z</time>
      </trkpt>
      <trkpt lat="45.65112" lon="6.58098">
        <ele>1576.53</ele>
        <time>2017-07-09T15:16:52Z</time>
      </trkpt>
      <trkpt lat="45.65093" lon="6.58093">
        <ele>1577.52</ele>
        <time>2017-07-09T15:17:07Z</time>
      </trkpt>
      <trkpt lat="45.65104" lon="6.58071">
        <ele>1573.17</ele>
        <time>2017-07-09T15:19:55Z</time>
      </trkpt>
    </trkseg>
  </trk>
</gpx>